createdAt,value
2023-02-08T00:00:44.564Z,8.27
2023-02-08T00:03:17.007Z,8.70
2023-02-08T00:05:46.940Z,9.97
2023-02-08T00:08:16.786Z,9.00
2023-02-08T00:10:47.099Z,9.87
2023-02-08T00:13:16.878Z,9.43
2023-02-08T00:15:48.521Z,7.53
2023-02-08T00:18:20.998Z,8.77
2023-02-08T00:20:51.597Z,9.23
2023-02-08T00:23:21.845Z,8.07
2023-02-08T00:25:51.663Z,8.77
2023-02-08T00:28:22.390Z,9.03
2023-02-08T00:30:53.533Z,8.53
2023-02-08T00:33:25.983Z,9.50
2023-02-08T00:36:01.732Z,9.70
2023-02-08T00:38:31.967Z,9.53
2023-02-08T00:41:01.799Z,8.60
2023-02-08T00:43:31.670Z,10.13
2023-02-08T00:46:02.715Z,9.23
2023-02-08T00:48:35.180Z,9.07
2023-02-08T00:51:07.247Z,9.03
2023-02-08T00:53:39.962Z,9.10
2023-02-08T00:56:10.841Z,9.47
2023-02-08T00:58:41.348Z,9.07
2023-02-08T01:01:11.796Z,10.43
2023-02-08T01:03:45.982Z,9.97
2023-02-08T01:06:18.156Z,9.47
2023-02-08T01:08:47.986Z,10.00
2023-02-08T01:11:21.957Z,9.50
2023-02-08T01:13:53.350Z,10.07
2023-02-08T01:16:25.892Z,10.73
2023-02-08T01:19:00.316Z,9.93
2023-02-08T01:21:32.745Z,10.13
2023-02-08T01:24:03.004Z,9.23
2023-02-08T01:26:33.560Z,9.43
2023-02-08T01:29:03.759Z,10.10
2023-02-08T01:31:36.345Z,9.57
2023-02-08T01:34:10.331Z,10.47
2023-02-08T01:36:41.391Z,10.60
2023-02-08T01:39:13.528Z,9.83
2023-02-08T01:41:46.833Z,8.93
2023-02-08T01:44:47.414Z,11.67
2023-02-08T01:47:17.659Z,9.47
2023-02-08T01:49:50.343Z,9.93
2023-02-08T01:52:23.389Z,10.20
2023-02-08T01:54:56.750Z,9.50
2023-02-08T01:57:27.980Z,8.90
2023-02-08T02:00:01.479Z,8.23
2023-02-08T02:02:31.706Z,9.33
2023-02-08T02:07:40.304Z,9.83
2023-02-08T02:10:15.404Z,8.70
2023-02-08T02:12:47.891Z,9.07
2023-02-08T02:15:17.680Z,9.40
2023-02-08T02:17:47.752Z,9.53
2023-02-08T02:20:24.162Z,8.57
2023-02-08T02:23:23.011Z,8.00
2023-02-08T02:26:32.744Z,9.30
2023-02-08T02:29:38.124Z,8.87
2023-02-08T02:32:25.213Z,9.03
2023-02-08T02:35:00.677Z,9.23
2023-02-08T02:37:43.961Z,9.50
2023-02-08T02:40:22.554Z,8.90
2023-02-08T02:43:16.444Z,9.83
2023-02-08T02:45:53.236Z,8.30
2023-02-08T02:48:31.991Z,8.83
2023-02-08T02:51:09.382Z,9.43
2023-02-08T02:53:48.656Z,8.93
2023-02-08T02:56:21.308Z,8.70
2023-02-08T02:58:51.575Z,9.43
2023-02-08T03:01:26.618Z,9.17
2023-02-08T03:03:59.879Z,9.87
2023-02-08T03:06:47.932Z,9.03
2023-02-08T03:09:44.428Z,8.87
2023-02-08T03:12:30.089Z,7.87
2023-02-08T03:15:04.393Z,8.90
2023-02-08T03:17:43.778Z,9.30
2023-02-08T03:20:21.266Z,8.33
2023-02-08T03:22:59.264Z,8.57
2023-02-08T03:25:35.888Z,10.37
2023-02-08T03:28:11.858Z,9.20
2023-02-08T03:30:50.184Z,10.20
2023-02-08T03:33:24.401Z,9.43
2023-02-08T03:36:02.876Z,9.13
2023-02-08T03:38:36.595Z,9.10
2023-02-08T03:41:13.151Z,8.93
2023-02-08T03:43:47.999Z,8.73
2023-02-08T03:46:22.610Z,8.47
2023-02-08T03:48:58.545Z,9.50
2023-02-08T03:51:33.132Z,9.57
2023-02-08T03:54:06.440Z,8.03
2023-02-08T03:56:42.238Z,8.70
2023-02-08T03:59:18.976Z,8.07
2023-02-08T04:01:51.510Z,8.57
2023-02-08T04:04:22.614Z,10.63
2023-02-08T04:06:55.423Z,9.03
2023-02-08T04:09:25.186Z,8.83
2023-02-08T04:11:54.981Z,9.90
2023-02-08T04:14:25.149Z,9.70
2023-02-08T04:16:55.078Z,9.90
2023-02-08T04:19:24.812Z,9.07
2023-02-08T04:21:57.340Z,8.20
2023-02-08T04:24:27.420Z,10.27
2023-02-08T04:26:59.930Z,10.20
2023-02-08T04:29:29.790Z,8.33
2023-02-08T04:32:00.223Z,9.43
2023-02-08T04:34:33.044Z,9.77
2023-02-08T04:37:05.436Z,9.27
2023-02-08T04:39:35.456Z,8.97
2023-02-08T04:42:05.296Z,9.90
2023-02-08T04:44:35.864Z,8.57
2023-02-08T04:47:05.628Z,10.20
2023-02-08T04:49:35.410Z,9.80
2023-02-08T04:52:08.247Z,10.40
2023-02-08T04:54:39.935Z,9.60
2023-02-08T04:57:11.763Z,11.67
2023-02-08T04:59:41.542Z,12.73
2023-02-08T05:02:11.559Z,11.00
2023-02-08T05:04:41.302Z,11.27
2023-02-08T05:07:13.652Z,12.57
2023-02-08T05:09:43.394Z,11.13
2023-02-08T05:12:13.411Z,12.13
2023-02-08T05:14:43.118Z,12.20
2023-02-08T05:17:13.003Z,13.10
2023-02-08T05:19:42.775Z,12.00
2023-02-08T05:22:15.161Z,12.33
2023-02-08T05:24:44.963Z,12.73
2023-02-08T05:27:14.803Z,13.10
2023-02-08T05:29:44.766Z,12.93
2023-02-08T05:32:14.772Z,11.23
2023-02-08T05:34:44.866Z,12.10
2023-02-08T05:37:17.238Z,12.93
2023-02-08T05:39:46.946Z,13.33
2023-02-08T05:42:16.812Z,12.80
2023-02-08T05:44:47.039Z,14.03
2023-02-08T05:47:16.908Z,13.20
2023-02-08T05:49:46.966Z,15.03
2023-02-08T05:52:19.321Z,13.93
2023-02-08T05:54:48.979Z,14.83
2023-02-08T05:57:18.826Z,14.07
2023-02-08T05:59:49.011Z,14.87
2023-02-08T06:02:18.711Z,15.30
2023-02-08T06:04:49.003Z,14.00
2023-02-08T06:07:21.356Z,14.87
2023-02-08T06:09:51.506Z,14.50
2023-02-08T06:12:21.261Z,15.97
2023-02-08T06:14:51.013Z,14.30
2023-02-08T06:17:20.708Z,14.00
2023-02-08T06:19:50.430Z,15.73
2023-02-08T06:22:22.922Z,15.83
2023-02-08T06:24:52.644Z,14.67
2023-02-08T06:27:22.396Z,14.47
2023-02-08T06:29:52.247Z,14.10
2023-02-08T06:32:22.170Z,15.67
2023-02-08T06:34:51.919Z,14.67
2023-02-08T06:37:24.566Z,15.80
2023-02-08T06:39:54.370Z,15.33
2023-02-08T06:42:24.195Z,13.57
2023-02-08T06:44:55.964Z,14.60
2023-02-08T06:47:26.478Z,15.00
2023-02-08T06:49:56.441Z,16.07
2023-02-08T06:52:28.985Z,14.20
2023-02-08T06:54:58.920Z,15.50
2023-02-08T06:57:28.931Z,15.63
2023-02-08T06:59:58.836Z,17.13
2023-02-08T07:02:28.659Z,16.07
2023-02-08T07:04:58.362Z,16.97
2023-02-08T07:07:31.016Z,15.13
2023-02-08T07:10:01.003Z,15.67
2023-02-08T07:12:30.747Z,16.03
2023-02-08T07:15:00.857Z,13.90
2023-02-08T07:17:30.984Z,16.60
2023-02-08T07:20:00.708Z,15.80
2023-02-08T07:22:33.085Z,14.87
2023-02-08T07:25:02.910Z,15.23
2023-02-08T07:27:32.712Z,15.60
2023-02-08T07:30:02.773Z,15.00
2023-02-08T07:32:34.721Z,15.70
2023-02-08T07:35:04.771Z,14.63
2023-02-08T07:37:37.188Z,13.90
2023-02-08T07:40:07.329Z,13.33
2023-02-08T07:42:37.047Z,14.23
2023-02-08T07:45:07.268Z,14.77
2023-02-08T07:47:37.041Z,13.40
2023-02-08T07:50:06.903Z,11.47
2023-02-08T07:52:39.214Z,13.23
2023-02-08T07:55:10.081Z,12.97
2023-02-08T07:57:39.906Z,13.83
2023-02-08T08:00:11.323Z,13.27
2023-02-08T08:02:41.169Z,13.27
2023-02-08T08:05:12.111Z,14.03
2023-02-08T08:07:44.559Z,12.70
2023-02-08T08:10:14.292Z,11.57
2023-02-08T08:12:44.092Z,13.20
2023-02-08T08:15:13.908Z,13.03
2023-02-08T08:17:43.905Z,13.67
2023-02-08T08:20:14.717Z,12.60
2023-02-08T08:22:47.256Z,14.20
2023-02-08T08:25:17.604Z,14.00
2023-02-08T08:27:47.788Z,14.87
2023-02-08T08:30:19.605Z,15.47
2023-02-08T08:32:49.577Z,15.13
2023-02-08T08:35:20.323Z,15.33
2023-02-08T08:37:53.025Z,15.73
2023-02-08T08:40:25.114Z,17.30
2023-02-08T08:42:55.053Z,16.90
2023-02-08T08:45:24.911Z,19.53
2023-02-08T08:47:54.758Z,17.83
2023-02-08T08:50:24.573Z,17.70
2023-02-08T08:52:57.078Z,19.97
2023-02-08T08:55:28.480Z,19.63
2023-02-08T08:57:58.425Z,21.80
2023-02-08T09:00:28.317Z,20.53
2023-02-08T09:02:58.228Z,21.80
2023-02-08T09:05:28.031Z,19.93
2023-02-08T09:08:01.816Z,19.83
2023-02-08T09:10:31.600Z,21.00
2023-02-08T09:13:02.035Z,20.00
2023-02-08T09:15:31.865Z,20.80
2023-02-08T09:18:01.711Z,19.73
2023-02-08T09:20:31.606Z,19.37
2023-02-08T09:23:04.267Z,20.47
2023-02-08T09:25:34.234Z,16.57
2023-02-08T09:28:04.119Z,15.50
2023-02-08T09:30:34.244Z,13.93
2023-02-08T09:33:04.038Z,13.43
2023-02-08T09:35:33.970Z,12.73
2023-02-08T09:38:06.909Z,11.37
2023-02-08T09:40:46.028Z,8.37
2023-02-08T09:43:25.447Z,7.37
2023-02-08T09:46:03.495Z,7.20
2023-02-08T09:48:37.483Z,6.53
2023-02-08T09:51:14.075Z,5.80
2023-02-08T09:53:55.043Z,5.90
2023-02-08T09:56:31.253Z,5.80
2023-02-08T09:59:03.764Z,4.50
2023-02-08T10:01:39.420Z,5.43
2023-02-08T10:04:18.140Z,5.50
2023-02-08T10:06:50.085Z,5.47
2023-02-08T10:09:29.853Z,4.43
2023-02-08T10:12:13.560Z,5.13
2023-02-08T10:14:54.330Z,4.10
2023-02-08T10:18:01.602Z,5.03
2023-02-08T10:20:46.890Z,4.50
2023-02-08T10:23:36.848Z,4.80
2023-02-08T10:26:17.508Z,4.17
2023-02-08T10:29:03.600Z,3.83
2023-02-08T10:31:49.384Z,3.57
2023-02-08T10:34:29.404Z,3.97
2023-02-08T10:37:01.502Z,4.43
2023-02-08T10:39:35.835Z,3.67
2023-02-08T10:42:15.491Z,3.30
2023-02-08T10:44:58.709Z,3.87
2023-02-08T10:47:42.009Z,4.53
2023-02-08T10:50:21.843Z,3.53
2023-02-08T10:52:52.633Z,3.57
2023-02-08T10:55:24.241Z,4.23
2023-02-08T10:58:02.029Z,3.70
2023-02-08T11:00:34.999Z,3.50
2023-02-08T11:03:15.384Z,3.63
2023-02-08T11:05:45.764Z,4.07
2023-02-08T11:08:19.642Z,4.07
2023-02-08T11:11:00.294Z,4.47
2023-02-08T11:13:37.687Z,5.00
2023-02-08T11:16:09.275Z,3.93
2023-02-08T11:18:41.981Z,2.37
2023-02-08T11:21:23.969Z,2.60
2023-02-08T11:23:56.066Z,2.80
2023-02-08T11:26:33.903Z,2.23
2023-02-08T11:29:08.759Z,2.90
2023-02-08T11:31:40.711Z,3.00
2023-02-08T11:34:13.568Z,3.60
2023-02-08T11:36:49.965Z,3.23
2023-02-08T11:39:24.555Z,2.63
2023-02-08T11:41:58.337Z,2.57
2023-02-08T11:44:35.213Z,2.73
2023-02-08T11:47:08.656Z,2.40
2023-02-08T11:49:42.032Z,2.93
2023-02-08T11:52:25.634Z,2.20
2023-02-08T11:54:56.703Z,2.43
2023-02-08T11:57:28.786Z,2.60
2023-02-08T12:00:23.232Z,3.17
2023-02-08T12:02:54.075Z,2.93
2023-02-08T12:05:36.057Z,2.37
2023-02-08T12:08:14.892Z,2.80
2023-02-08T12:11:06.505Z,2.90
2023-02-08T12:13:58.331Z,2.90
2023-02-08T12:16:46.584Z,2.67
2023-02-08T12:19:55.689Z,2.90
2023-02-08T12:22:29.138Z,3.03
2023-02-08T12:25:09.564Z,2.60
2023-02-08T12:27:46.158Z,3.30
2023-02-08T12:30:25.154Z,2.60
2023-02-08T12:33:29.658Z,2.83
2023-02-08T12:36:19.416Z,2.73
2023-02-08T12:39:24.662Z,2.70
2023-02-08T12:42:15.192Z,2.93
2023-02-08T12:45:03.156Z,2.73
2023-02-08T12:48:03.096Z,3.13
2023-02-08T12:50:48.900Z,2.90
2023-02-08T12:53:25.934Z,2.87
2023-02-08T12:55:58.429Z,2.70
2023-02-08T12:58:32.393Z,3.00
2023-02-08T13:01:10.900Z,2.53
2023-02-08T13:03:48.106Z,3.00
2023-02-08T13:06:25.577Z,2.63
2023-02-08T13:09:01.966Z,2.80
2023-02-08T13:11:37.948Z,2.33
2023-02-08T13:14:14.917Z,2.20
2023-02-08T13:16:49.439Z,1.93
2023-02-08T13:19:29.429Z,1.83
2023-02-08T13:22:03.513Z,2.00
2023-02-08T13:24:39.695Z,1.70
2023-02-08T13:27:09.816Z,2.13
2023-02-08T13:29:40.891Z,2.50
2023-02-08T13:32:18.091Z,1.30
2023-02-08T13:34:53.143Z,1.63
2023-02-08T13:37:30.918Z,2.07
2023-02-08T13:40:05.639Z,1.80
2023-02-08T13:42:40.524Z,1.77
2023-02-08T13:45:13.531Z,1.80
2023-02-08T13:47:48.859Z,1.60
2023-02-08T13:50:45.249Z,1.80
2023-02-08T13:53:20.002Z,2.17
2023-02-08T13:56:08.661Z,1.30
2023-02-08T13:59:06.652Z,1.30
2023-02-08T14:01:38.858Z,1.60
2023-02-08T14:04:41.044Z,2.10
2023-02-08T14:07:33.809Z,1.20
2023-02-08T14:10:22.301Z,1.47
2023-02-08T14:13:00.124Z,1.67
2023-02-08T14:15:40.729Z,1.60
2023-02-08T14:18:29.107Z,1.87
2023-02-08T14:21:07.983Z,1.50
2023-02-08T14:23:41.168Z,1.57
2023-02-08T14:26:25.220Z,1.57
2023-02-08T14:28:59.548Z,1.40
2023-02-08T14:31:40.995Z,1.50
2023-02-08T14:34:25.599Z,1.60
2023-02-08T14:37:04.213Z,1.20
2023-02-08T14:39:37.441Z,1.40
2023-02-08T14:42:14.103Z,1.50
2023-02-08T14:45:06.430Z,1.67
2023-02-08T14:48:08.687Z,1.40
2023-02-08T14:50:43.046Z,1.63
2023-02-08T14:53:28.927Z,1.77
2023-02-08T14:56:02.833Z,1.70
2023-02-08T14:58:38.329Z,1.67
2023-02-08T15:01:11.544Z,1.83
2023-02-08T15:03:44.470Z,2.37
2023-02-08T15:06:49.806Z,1.63
2023-02-08T15:09:24.155Z,1.60
2023-02-08T15:12:02.998Z,2.23
2023-02-08T15:14:38.988Z,2.00
2023-02-08T15:17:10.262Z,2.13
2023-02-08T15:19:43.377Z,2.30
2023-02-08T15:22:20.487Z,1.80
2023-02-08T15:24:54.320Z,1.87
2023-02-08T15:27:26.381Z,1.70
2023-02-08T15:29:59.254Z,2.17
2023-02-08T15:32:31.629Z,1.73
2023-02-08T15:35:04.558Z,2.00
2023-02-08T15:37:36.747Z,2.10
2023-02-08T15:40:08.548Z,1.83
2023-02-08T15:42:38.587Z,1.70
2023-02-08T15:45:24.722Z,2.20
2023-02-08T15:47:55.818Z,2.67
2023-02-08T15:50:26.991Z,2.30
2023-02-08T15:53:01.403Z,2.40
2023-02-08T15:55:35.689Z,2.40
2023-02-08T15:58:10.230Z,2.87
2023-02-08T16:00:47.447Z,2.13
2023-02-08T16:03:23.806Z,2.57
2023-02-08T16:05:54.926Z,3.17
2023-02-08T16:08:28.761Z,3.50
2023-02-08T16:11:04.610Z,3.70
2023-02-08T16:13:37.115Z,7.27
2023-02-08T16:16:23.059Z,2.87
2023-02-08T16:19:00.281Z,3.03
2023-02-08T16:21:35.284Z,2.63
2023-02-08T16:24:10.277Z,3.07
2023-02-08T16:26:45.979Z,2.73
2023-02-08T16:29:22.496Z,3.17
2023-02-08T16:32:01.191Z,2.57
2023-02-08T16:34:31.660Z,2.30
2023-02-08T16:37:02.509Z,3.07
2023-02-08T16:39:53.393Z,3.00
2023-02-08T16:42:33.901Z,2.67
2023-02-08T16:45:17.583Z,3.47
2023-02-08T16:47:53.513Z,3.17
2023-02-08T16:50:24.886Z,1.97
2023-02-08T16:52:57.912Z,2.67
2023-02-08T16:55:30.223Z,2.40
2023-02-08T16:58:01.658Z,2.30
2023-02-08T17:00:34.043Z,2.83
2023-02-08T17:03:06.899Z,2.60
2023-02-08T17:05:41.059Z,3.07
2023-02-08T17:08:15.845Z,2.70
2023-02-08T17:10:48.658Z,3.03
2023-02-08T17:13:20.676Z,2.53
2023-02-08T17:15:53.322Z,3.20
2023-02-08T17:18:26.068Z,2.73
2023-02-08T17:20:59.753Z,2.73
2023-02-08T17:23:30.122Z,2.70
2023-02-08T17:26:00.479Z,2.90
2023-02-08T17:28:31.733Z,2.63
2023-02-08T17:31:03.049Z,3.83
2023-02-08T17:33:40.255Z,4.37
2023-02-08T17:36:12.509Z,3.50
2023-02-08T17:38:44.273Z,3.87
2023-02-08T17:41:17.627Z,4.20
2023-02-08T17:43:48.871Z,4.60
2023-02-08T17:46:20.726Z,4.20
2023-02-08T17:48:53.457Z,4.23
2023-02-08T17:51:24.874Z,3.97
2023-02-08T17:53:54.857Z,4.20
2023-02-08T17:56:27.341Z,3.80
2023-02-08T17:59:01.216Z,4.90
2023-02-08T18:01:31.330Z,4.57
2023-02-08T18:04:03.834Z,4.33
2023-02-08T18:06:34.074Z,4.67
2023-02-08T18:09:03.980Z,4.50
2023-02-08T18:11:34.052Z,4.70
2023-02-08T18:14:04.015Z,4.53
2023-02-08T18:16:35.927Z,5.10
2023-02-08T18:19:08.558Z,5.40
2023-02-08T18:21:38.279Z,6.20
2023-02-08T18:24:09.338Z,7.53
2023-02-08T18:26:39.289Z,6.20
2023-02-08T18:29:09.074Z,5.77
2023-02-08T18:31:39.644Z,5.43
2023-02-08T18:34:12.620Z,6.07
2023-02-08T18:36:42.466Z,5.10
2023-02-08T18:39:15.146Z,5.80
2023-02-08T18:41:45.347Z,6.03
2023-02-08T18:44:15.124Z,6.23
2023-02-08T18:46:45.247Z,6.50
2023-02-08T18:49:18.890Z,5.87
2023-02-08T18:51:49.430Z,6.20
2023-02-08T18:54:20.750Z,5.93
2023-02-08T18:56:54.832Z,5.60
2023-02-08T18:59:24.784Z,6.47
2023-02-08T19:01:54.780Z,5.23
2023-02-08T19:04:27.408Z,5.43
2023-02-08T19:06:57.826Z,5.97
2023-02-08T19:09:27.639Z,5.60
2023-02-08T19:11:57.755Z,5.53
2023-02-08T19:14:27.564Z,5.33
2023-02-08T19:16:57.640Z,5.40
2023-02-08T19:19:30.133Z,5.50
2023-02-08T19:21:59.974Z,5.30
2023-02-08T19:24:29.686Z,5.27
2023-02-08T19:26:59.473Z,5.20
2023-02-08T19:29:29.219Z,4.27
2023-02-08T19:31:59.089Z,3.77
2023-02-08T19:34:31.654Z,3.50
2023-02-08T19:37:01.495Z,3.77
2023-02-08T19:39:31.349Z,4.00
2023-02-08T19:42:01.407Z,3.83
2023-02-08T19:44:31.362Z,4.37
2023-02-08T19:47:01.712Z,4.17
2023-02-08T19:49:34.056Z,4.27
2023-02-08T19:52:05.855Z,4.47
2023-02-08T19:54:35.809Z,3.97
2023-02-08T19:57:05.648Z,3.90
2023-02-08T19:59:35.581Z,4.40
2023-02-08T20:02:06.417Z,3.50
2023-02-08T20:04:38.879Z,4.00
2023-02-08T20:07:09.902Z,4.33
2023-02-08T20:09:40.881Z,3.80
2023-02-08T20:12:10.866Z,3.90
2023-02-08T20:14:40.569Z,3.33
2023-02-08T20:17:10.382Z,4.00
2023-02-08T20:19:42.842Z,4.00
2023-02-08T20:22:12.578Z,3.03
2023-02-08T20:24:43.511Z,3.73
2023-02-08T20:27:13.868Z,4.27
2023-02-08T20:29:43.703Z,3.57
2023-02-08T20:32:13.868Z,3.10
2023-02-08T20:34:58.374Z,3.40
2023-02-08T20:37:29.159Z,3.07
2023-02-08T20:39:58.899Z,3.40
2023-02-08T20:42:28.757Z,3.27
2023-02-08T20:44:58.569Z,3.83
2023-02-08T20:47:29.941Z,3.40
2023-02-08T20:50:16.801Z,3.47
2023-02-08T20:52:49.314Z,3.40
2023-02-08T20:55:19.419Z,3.00
2023-02-08T20:57:49.350Z,3.40
2023-02-08T21:00:19.911Z,4.03
2023-02-08T21:02:50.042Z,3.57
2023-02-08T21:05:22.798Z,3.43
2023-02-08T21:07:52.646Z,3.37
2023-02-08T21:10:22.499Z,3.23
2023-02-08T21:12:52.240Z,3.30
2023-02-08T21:15:22.323Z,3.17
2023-02-08T21:17:52.150Z,2.97
2023-02-08T21:20:25.051Z,3.20
2023-02-08T21:22:54.884Z,3.23
2023-02-08T21:25:24.816Z,3.07
2023-02-08T21:27:54.802Z,3.50
2023-02-08T21:30:24.886Z,2.90
2023-02-08T21:32:54.729Z,3.10
2023-02-08T21:35:27.192Z,2.90
2023-02-08T21:37:56.985Z,3.03
2023-02-08T21:40:26.789Z,2.57
2023-02-08T21:42:56.564Z,3.70
2023-02-08T21:45:26.354Z,3.03
2023-02-08T21:47:56.539Z,3.03
2023-02-08T21:50:41.397Z,3.00
2023-02-08T21:53:25.374Z,2.93
2023-02-08T21:55:55.219Z,3.10
2023-02-08T21:58:24.964Z,3.67
2023-02-08T22:00:55.168Z,3.10
2023-02-08T22:03:25.018Z,3.03
2023-02-08T22:06:09.789Z,2.90
2023-02-08T22:08:39.908Z,3.10
2023-02-08T22:11:10.013Z,3.20
2023-02-08T22:13:39.943Z,2.93
2023-02-08T22:16:11.229Z,3.43
2023-02-08T22:18:41.581Z,3.23
2023-02-08T22:21:13.942Z,3.73
2023-02-08T22:23:43.825Z,2.80
2023-02-08T22:26:13.595Z,3.43
2023-02-08T22:28:43.589Z,3.73
2023-02-08T22:31:15.708Z,2.70
2023-02-08T22:33:45.921Z,3.30
2023-02-08T22:36:18.554Z,3.07
2023-02-08T22:38:48.443Z,3.37
2023-02-08T22:41:20.518Z,3.20
2023-02-08T22:43:51.912Z,3.23
2023-02-08T22:46:21.738Z,2.77
2023-02-08T22:48:51.623Z,3.80
2023-02-08T22:51:24.375Z,3.40
2023-02-08T22:53:54.343Z,3.20
2023-02-08T22:56:24.421Z,3.37
2023-02-08T22:58:54.247Z,3.73
2023-02-08T23:01:24.134Z,3.87
2023-02-08T23:03:54.212Z,3.00
2023-02-08T23:06:26.759Z,3.03
2023-02-08T23:08:56.888Z,2.77
2023-02-08T23:11:27.234Z,3.40
2023-02-08T23:13:57.580Z,3.53
2023-02-08T23:16:27.541Z,4.03
2023-02-08T23:18:57.289Z,2.90
2023-02-08T23:21:29.870Z,4.13
2023-02-08T23:23:59.801Z,3.83
2023-02-08T23:26:29.611Z,3.33
2023-02-08T23:28:59.343Z,3.77
2023-02-08T23:31:29.334Z,3.33
2023-02-08T23:33:59.176Z,3.10
2023-02-08T23:36:31.516Z,2.90
2023-02-08T23:39:01.316Z,3.03
2023-02-08T23:41:31.207Z,3.17
2023-02-08T23:44:01.020Z,3.27
2023-02-08T23:46:32.160Z,2.90
2023-02-08T23:49:02.010Z,3.20
2023-02-08T23:51:34.400Z,3.60
2023-02-08T23:54:04.235Z,3.03
2023-02-08T23:56:34.943Z,3.40
2023-02-08T23:59:08.128Z,4.07
